createdAt,value
2018-10-18T00:02:28.214Z,91.70
2018-10-18T00:04:58.957Z,91.70
2018-10-18T00:07:30.297Z,91.80
2018-10-18T00:10:00.174Z,92.00
2018-10-18T00:12:30.293Z,92.00
2018-10-18T00:15:01.440Z,92.00
2018-10-18T00:17:36.256Z,92.00
2018-10-18T00:20:06.496Z,91.90
2018-10-18T00:22:37.334Z,91.90
2018-10-18T00:25:07.476Z,91.90
2018-10-18T00:27:39.156Z,92.00
2018-10-18T00:30:12.330Z,92.00
2018-10-18T00:32:44.103Z,92.10
2018-10-18T00:35:14.884Z,92.10
2018-10-18T00:37:46.945Z,92.20
2018-10-18T00:40:19.176Z,92.40
2018-10-18T00:42:50.458Z,92.40
2018-10-18T00:45:21.852Z,92.40
2018-10-18T00:47:52.246Z,92.30
2018-10-18T00:50:22.084Z,92.50
2018-10-18T00:52:52.196Z,92.70
2018-10-18T00:55:22.464Z,92.70
2018-10-18T00:57:52.440Z,92.80
2018-10-18T01:00:22.952Z,92.80
2018-10-18T01:02:52.636Z,93.00
2018-10-18T01:05:22.767Z,93.00
2018-10-18T01:07:52.899Z,92.90
2018-10-18T01:10:22.976Z,93.00
2018-10-18T01:12:53.919Z,93.20
2018-10-18T01:15:25.780Z,92.90
2018-10-18T01:17:56.550Z,93.00
2018-10-18T01:20:27.517Z,93.00
2018-10-18T01:22:58.964Z,93.00
2018-10-18T01:25:30.348Z,93.10
2018-10-18T01:28:01.018Z,93.20
2018-10-18T01:30:31.904Z,93.80
2018-10-18T01:33:02.825Z,93.40
2018-10-18T01:35:34.756Z,93.40
2018-10-18T01:38:06.135Z,93.40
2018-10-18T01:40:37.459Z,93.70
2018-10-18T01:43:08.867Z,93.60
2018-10-18T01:45:39.634Z,93.60
2018-10-18T01:48:10.810Z,93.60
2018-10-18T01:50:41.373Z,93.70
2018-10-18T01:53:11.900Z,93.70
2018-10-18T01:55:42.604Z,93.70
2018-10-18T01:58:14.069Z,93.70
2018-10-18T02:00:45.308Z,93.80
2018-10-18T02:03:17.636Z,93.90
2018-10-18T02:05:50.804Z,93.90
2018-10-18T02:08:23.211Z,93.90
2018-10-18T02:10:54.808Z,94.00
2018-10-18T02:13:25.953Z,94.00
2018-10-18T02:15:57.587Z,93.90
2018-10-18T02:18:27.243Z,93.90
2018-10-18T02:20:57.619Z,93.80
2018-10-18T02:23:59.797Z,93.80
2018-10-18T02:26:30.932Z,93.70
2018-10-18T02:29:01.576Z,93.70
2018-10-18T02:31:32.159Z,93.70
2018-10-18T02:34:02.678Z,93.70
2018-10-18T02:36:34.596Z,93.70
2018-10-18T02:39:06.523Z,93.70
2018-10-18T02:41:38.122Z,93.70
2018-10-18T02:44:08.951Z,93.70
2018-10-18T02:46:39.193Z,93.70
2018-10-18T02:49:10.968Z,93.70
2018-10-18T02:51:42.533Z,93.70
2018-10-18T02:54:13.410Z,93.60
2018-10-18T02:56:44.707Z,93.80
2018-10-18T02:59:15.367Z,93.90
2018-10-18T03:01:46.424Z,94.20
2018-10-18T03:04:17.869Z,93.80
2018-10-18T03:06:48.427Z,93.80
2018-10-18T03:09:18.590Z,93.80
2018-10-18T03:11:49.454Z,93.80
2018-10-18T03:14:20.440Z,93.60
2018-10-18T03:16:50.332Z,93.50
2018-10-18T03:19:20.585Z,93.50
2018-10-18T03:21:52.174Z,93.40
2018-10-18T03:24:30.098Z,93.50
2018-10-18T03:27:01.432Z,93.50
2018-10-18T03:29:30.932Z,93.40
2018-10-18T03:32:00.684Z,93.50
2018-10-18T03:34:31.154Z,93.50
2018-10-18T03:37:02.342Z,93.50
2018-10-18T03:39:32.961Z,93.60
2018-10-18T03:42:04.411Z,93.50
2018-10-18T03:44:35.964Z,93.60
2018-10-18T03:47:06.360Z,93.50
2018-10-18T03:49:37.673Z,93.50
2018-10-18T03:52:09.210Z,93.50
2018-10-18T03:54:40.039Z,93.60
2018-10-18T03:57:10.135Z,93.70
2018-10-18T03:59:41.459Z,93.80
2018-10-18T04:02:13.079Z,93.70
2018-10-18T04:04:44.310Z,93.70
2018-10-18T04:07:14.880Z,93.70
2018-10-18T04:09:46.934Z,93.70
2018-10-18T04:12:17.935Z,93.80
2018-10-18T04:14:47.899Z,93.70
2018-10-18T04:17:18.644Z,93.80
2018-10-18T04:19:50.743Z,93.70
2018-10-18T04:22:22.223Z,93.70
2018-10-18T04:24:52.280Z,94.20
2018-10-18T04:27:22.244Z,93.90
2018-10-18T04:29:53.305Z,93.90
2018-10-18T04:32:24.031Z,93.80
2018-10-18T04:34:55.542Z,94.30
2018-10-18T04:37:26.963Z,93.90
2018-10-18T04:39:57.984Z,93.90
2018-10-18T04:42:29.166Z,93.90
2018-10-18T04:45:00.851Z,93.90
2018-10-18T04:47:31.365Z,93.90
2018-10-18T04:50:02.276Z,93.90
2018-10-18T04:52:33.363Z,93.90
2018-10-18T04:55:03.594Z,93.90
2018-10-18T04:57:35.889Z,93.90
2018-10-18T05:00:04.953Z,93.80
2018-10-18T05:02:35.696Z,94.20
2018-10-18T05:05:15.490Z,93.80
2018-10-18T05:07:46.868Z,93.80
2018-10-18T05:10:17.343Z,94.00
2018-10-18T05:12:47.962Z,93.60
2018-10-18T05:15:19.462Z,93.60
2018-10-18T05:17:49.624Z,93.60
2018-10-18T05:20:26.707Z,93.50
2018-10-18T05:22:57.947Z,93.60
2018-10-18T05:25:28.158Z,93.60
2018-10-18T05:27:59.684Z,93.60
2018-10-18T05:30:31.335Z,93.60
2018-10-18T05:33:01.049Z,93.60
2018-10-18T05:35:32.594Z,93.50
2018-10-18T05:38:03.096Z,93.50
2018-10-18T05:40:33.080Z,93.50
2018-10-18T05:43:03.226Z,93.60
2018-10-18T05:45:34.797Z,93.50
2018-10-18T05:48:06.112Z,93.50
2018-10-18T05:50:37.368Z,93.60
2018-10-18T05:53:08.091Z,93.60
2018-10-18T05:55:39.221Z,93.50
2018-10-18T05:58:09.692Z,93.60
2018-10-18T06:00:40.575Z,93.60
2018-10-18T06:03:12.623Z,93.70
2018-10-18T06:05:44.508Z,94.10
2018-10-18T06:08:15.920Z,93.90
2018-10-18T06:10:55.957Z,94.40
2018-10-18T06:13:27.360Z,94.30
2018-10-18T06:15:59.260Z,94.30
2018-10-18T06:18:30.848Z,94.30
2018-10-18T06:21:02.705Z,94.40
2018-10-18T06:23:33.917Z,94.50
2018-10-18T06:26:05.281Z,94.50
2018-10-18T06:28:36.621Z,94.60
2018-10-18T06:31:08.158Z,94.50
2018-10-18T06:33:39.873Z,94.10
2018-10-18T06:36:10.978Z,94.20
2018-10-18T06:38:41.566Z,94.20
2018-10-18T06:41:12.913Z,94.20
2018-10-18T06:43:44.331Z,94.10
2018-10-18T06:46:15.453Z,94.10
2018-10-18T06:48:46.814Z,94.10
2018-10-18T06:51:17.492Z,94.20
2018-10-18T06:53:48.253Z,94.40
2018-10-18T06:56:19.304Z,94.50
2018-10-18T06:58:52.076Z,94.60
2018-10-18T07:01:22.780Z,94.60
2018-10-18T07:03:54.234Z,94.80
2018-10-18T07:06:25.417Z,95.10
2018-10-18T07:08:56.923Z,94.70
2018-10-18T07:11:28.355Z,94.60
2018-10-18T07:13:59.445Z,94.60
2018-10-18T07:16:30.878Z,94.50
2018-10-18T07:19:01.612Z,94.50
2018-10-18T07:21:32.063Z,94.60
2018-10-18T07:24:03.613Z,94.60
2018-10-18T07:26:34.265Z,94.70
2018-10-18T07:29:04.937Z,94.80
2018-10-18T07:31:36.711Z,94.80
2018-10-18T07:34:06.647Z,94.50
2018-10-18T07:36:37.921Z,94.40
2018-10-18T07:39:10.336Z,94.60
2018-10-18T07:41:42.527Z,94.70
2018-10-18T07:44:13.280Z,94.50
2018-10-18T07:46:43.487Z,94.40
2018-10-18T07:49:13.222Z,94.40
2018-10-18T07:51:43.545Z,94.30
2018-10-18T07:54:15.035Z,94.40
2018-10-18T07:56:45.713Z,94.30
2018-10-18T07:59:17.285Z,94.20
2018-10-18T08:01:48.462Z,94.00
2018-10-18T08:04:19.889Z,93.80
2018-10-18T08:06:50.159Z,93.80
2018-10-18T08:09:20.709Z,93.80
2018-10-18T08:11:51.665Z,93.70
2018-10-18T08:14:22.517Z,93.60
2018-10-18T08:16:54.087Z,93.40
2018-10-18T08:19:24.862Z,93.00
2018-10-18T08:21:55.431Z,93.00
2018-10-18T08:24:26.812Z,93.00
2018-10-18T08:26:58.304Z,93.00
2018-10-18T08:29:29.924Z,92.90
2018-10-18T08:32:02.005Z,92.80
2018-10-18T08:34:32.590Z,92.80
2018-10-18T08:37:02.839Z,92.80
2018-10-18T08:39:32.433Z,92.70
2018-10-18T08:42:02.453Z,92.60
2018-10-18T08:44:32.464Z,92.80
2018-10-18T08:47:01.565Z,92.40
2018-10-18T08:49:32.083Z,92.00
2018-10-18T08:52:01.778Z,91.90
2018-10-18T08:54:32.260Z,91.60
2018-10-18T08:57:01.072Z,91.60
2018-10-18T08:59:31.704Z,91.80
2018-10-18T09:02:02.337Z,91.80
2018-10-18T09:04:32.288Z,91.90
2018-10-18T09:07:03.189Z,91.50
2018-10-18T09:09:33.570Z,91.10
2018-10-18T09:12:04.076Z,91.30
2018-10-18T09:14:36.470Z,91.40
2018-10-18T09:17:07.690Z,91.10
2018-10-18T09:19:39.154Z,91.10
2018-10-18T09:22:09.702Z,91.00
2018-10-18T09:24:41.720Z,90.40
2018-10-18T09:27:11.431Z,88.80
2018-10-18T09:29:41.837Z,87.00
2018-10-18T09:32:13.145Z,82.90
2018-10-18T09:34:45.431Z,82.60
2018-10-18T09:37:16.041Z,81.40
2018-10-18T09:39:47.345Z,79.10
2018-10-18T09:42:18.696Z,77.20
2018-10-18T09:44:50.170Z,76.90
2018-10-18T09:47:19.811Z,76.50
2018-10-18T09:49:51.030Z,77.40
2018-10-18T09:52:21.456Z,76.60
2018-10-18T09:54:52.858Z,78.10
2018-10-18T09:57:25.312Z,79.40
2018-10-18T09:59:57.412Z,79.50
2018-10-18T10:02:33.999Z,77.30
2018-10-18T10:05:04.393Z,75.80
2018-10-18T10:07:35.205Z,74.40
2018-10-18T10:10:07.606Z,74.90
2018-10-18T10:12:36.693Z,74.00
2018-10-18T10:15:09.738Z,73.60
2018-10-18T10:17:39.594Z,70.10
2018-10-18T10:20:10.544Z,70.00
2018-10-18T10:22:41.736Z,70.20
2018-10-18T10:25:11.561Z,68.70
2018-10-18T10:27:41.550Z,65.40
2018-10-18T10:30:12.333Z,60.60
2018-10-18T10:32:42.761Z,59.90
2018-10-18T10:35:13.464Z,58.90
2018-10-18T10:37:44.996Z,57.20
2018-10-18T10:40:16.576Z,53.60
2018-10-18T10:42:48.891Z,51.40
2018-10-18T10:45:20.545Z,51.00
2018-10-18T10:47:52.216Z,48.10
2018-10-18T10:50:22.328Z,48.80
2018-10-18T10:52:51.669Z,47.80
2018-10-18T10:55:20.962Z,46.10
2018-10-18T11:00:39.298Z,45.00
2018-10-18T11:03:10.611Z,43.50
2018-10-18T11:05:42.506Z,41.10
2018-10-18T11:08:13.419Z,41.50
2018-10-18T11:10:43.580Z,41.10
2018-10-18T11:13:14.884Z,40.70
2018-10-18T11:15:45.563Z,38.50
2018-10-18T11:18:17.348Z,38.20
2018-10-18T11:20:48.765Z,37.60
2018-10-18T11:23:20.323Z,36.20
2018-10-18T11:25:53.079Z,38.10
2018-10-18T11:28:24.215Z,38.20
2018-10-18T11:30:56.443Z,34.80
2018-10-18T11:33:28.014Z,34.50
2018-10-18T11:35:59.991Z,34.30
2018-10-18T11:38:30.581Z,34.60
2018-10-18T11:41:03.976Z,34.10
2018-10-18T11:43:35.667Z,34.50
2018-10-18T11:46:05.663Z,34.10
2018-10-18T11:48:37.578Z,34.10
2018-10-18T11:51:09.006Z,34.40
2018-10-18T11:53:37.733Z,32.80
2018-10-18T11:56:08.385Z,32.10
2018-10-18T11:58:39.026Z,32.00
2018-10-18T12:01:10.685Z,30.60
2018-10-18T12:03:42.058Z,30.50
2018-10-18T12:06:13.242Z,30.40
2018-10-18T12:08:43.582Z,30.80
2018-10-18T12:11:14.722Z,29.70
2018-10-18T12:13:44.600Z,30.40
2018-10-18T12:16:14.746Z,30.40
2018-10-18T12:18:45.321Z,30.20
2018-10-18T12:21:14.991Z,31.00
2018-10-18T12:23:45.097Z,31.20
2018-10-18T12:26:16.026Z,32.40
2018-10-18T12:28:46.903Z,32.70
2018-10-18T12:31:18.315Z,33.40
2018-10-18T12:33:48.825Z,34.80
2018-10-18T12:36:20.374Z,35.50
2018-10-18T12:38:52.980Z,38.70
2018-10-18T12:41:24.458Z,42.40
2018-10-18T12:43:55.115Z,44.80
2018-10-18T12:46:26.174Z,47.40
2018-10-18T12:48:57.401Z,50.30
2018-10-18T12:51:28.021Z,51.80
2018-10-18T12:53:59.263Z,52.00
2018-10-18T12:56:29.201Z,52.50
2018-10-18T12:59:00.325Z,53.30
2018-10-18T13:01:30.890Z,54.20
2018-10-18T13:04:03.971Z,54.00
2018-10-18T13:06:34.660Z,54.90
2018-10-18T13:09:07.762Z,55.70
2018-10-18T13:11:38.966Z,56.50
2018-10-18T13:14:10.860Z,57.30
2018-10-18T13:16:42.355Z,57.30
2018-10-18T13:19:12.078Z,58.50
2018-10-18T13:21:42.575Z,57.70
2018-10-18T13:24:14.051Z,58.30
2018-10-18T13:26:44.900Z,58.30
2018-10-18T13:29:16.309Z,58.40
2018-10-18T13:31:47.787Z,58.80
2018-10-18T13:34:18.485Z,58.80
2018-10-18T13:36:49.319Z,59.30
2018-10-18T13:39:20.448Z,58.80
2018-10-18T13:41:51.928Z,59.50
2018-10-18T13:44:22.520Z,59.50
2018-10-18T13:46:53.240Z,59.90
2018-10-18T13:49:24.933Z,59.50
2018-10-18T13:51:56.371Z,60.10
2018-10-18T13:54:28.152Z,60.90
2018-10-18T13:56:59.436Z,60.50
2018-10-18T13:59:39.461Z,59.80
2018-10-18T14:02:10.285Z,58.70
2018-10-18T14:04:41.140Z,58.50
2018-10-18T14:07:12.880Z,58.30
2018-10-18T14:09:48.739Z,58.00
2018-10-18T14:12:20.289Z,57.50
2018-10-18T14:14:50.219Z,57.60
2018-10-18T14:17:20.683Z,57.40
2018-10-18T14:19:52.028Z,57.60
2018-10-18T14:22:22.143Z,57.50
2018-10-18T14:24:52.356Z,57.00
2018-10-18T14:27:23.272Z,56.80
2018-10-18T14:29:53.849Z,56.90
2018-10-18T14:32:25.312Z,57.20
2018-10-18T14:34:56.867Z,56.90
2018-10-18T14:37:28.203Z,57.30
2018-10-18T14:40:00.271Z,57.50
2018-10-18T14:42:31.055Z,56.80
2018-10-18T14:45:03.467Z,56.70
2018-10-18T14:47:34.380Z,56.70
2018-10-18T14:50:04.541Z,56.50
2018-10-18T14:52:35.812Z,57.30
2018-10-18T14:55:06.608Z,57.00
2018-10-18T14:57:38.440Z,56.80
2018-10-18T15:00:10.706Z,56.80
2018-10-18T15:02:41.298Z,56.90
2018-10-18T15:05:13.197Z,57.60
2018-10-18T15:07:44.682Z,58.00
2018-10-18T15:10:15.330Z,57.60
2018-10-18T15:12:46.707Z,57.40
2018-10-18T15:15:18.113Z,57.50
2018-10-18T15:17:50.449Z,58.10
2018-10-18T15:20:22.066Z,57.10
2018-10-18T15:22:53.914Z,56.60
2018-10-18T15:25:24.579Z,55.90
2018-10-18T15:27:56.062Z,56.50
2018-10-18T15:30:26.019Z,55.90
2018-10-18T15:32:58.774Z,55.70
2018-10-18T15:35:29.776Z,56.20
2018-10-18T15:38:01.148Z,55.00
2018-10-18T15:40:32.765Z,55.40
2018-10-18T15:43:03.368Z,55.90
2018-10-18T15:45:34.741Z,55.50
2018-10-18T15:48:06.165Z,56.30
2018-10-18T15:50:38.421Z,56.20
2018-10-18T15:53:10.052Z,56.30
2018-10-18T15:55:41.351Z,56.90
2018-10-18T15:58:12.917Z,56.90
2018-10-18T16:00:43.439Z,56.90
2018-10-18T16:03:14.725Z,57.20
2018-10-18T16:05:47.118Z,57.00
2018-10-18T16:08:18.278Z,56.90
2018-10-18T16:10:49.376Z,57.00
2018-10-18T16:13:21.001Z,57.40
2018-10-18T16:15:49.816Z,57.30
2018-10-18T16:18:21.245Z,57.20
2018-10-18T16:20:50.636Z,57.90
2018-10-18T16:23:21.547Z,58.30
2018-10-18T16:25:52.859Z,58.70
2018-10-18T16:28:22.900Z,58.70
2018-10-18T16:30:54.905Z,58.80
2018-10-18T16:33:26.001Z,58.30
2018-10-18T16:35:56.512Z,58.20
2018-10-18T16:38:27.385Z,59.00
2018-10-18T16:40:57.723Z,58.80
2018-10-18T16:43:29.114Z,58.80
2018-10-18T16:46:00.020Z,59.00
2018-10-18T16:48:30.923Z,59.20
2018-10-18T16:51:02.549Z,59.30
2018-10-18T16:53:33.214Z,59.90
2018-10-18T16:56:02.361Z,59.70
2018-10-18T16:58:31.221Z,59.80
2018-10-18T17:01:01.684Z,59.70
2018-10-18T17:03:32.889Z,60.00
2018-10-18T17:06:04.514Z,60.50
2018-10-18T17:08:34.585Z,60.70
2018-10-18T17:11:05.885Z,61.00
2018-10-18T17:13:35.123Z,61.90
2018-10-18T17:16:04.506Z,62.20
2018-10-18T17:18:35.949Z,62.90
2018-10-18T17:21:06.771Z,63.80
2018-10-18T17:23:37.516Z,64.40
2018-10-18T17:26:08.374Z,65.00
2018-10-18T17:28:39.411Z,65.50
2018-10-18T17:31:10.056Z,66.30
2018-10-18T17:33:41.356Z,66.80
2018-10-18T17:36:11.615Z,66.50
2018-10-18T17:38:42.920Z,67.00
2018-10-18T17:41:15.506Z,67.40
2018-10-18T17:43:44.747Z,68.40
2018-10-18T17:46:16.942Z,68.50
2018-10-18T17:48:47.333Z,68.80
2018-10-18T17:51:18.288Z,68.30
2018-10-18T17:53:50.526Z,69.10
2018-10-18T17:56:21.125Z,69.50
2018-10-18T17:58:51.195Z,70.10
2018-10-18T18:01:23.486Z,70.40
2018-10-18T18:03:54.936Z,70.20
2018-10-18T18:06:26.009Z,70.40
2018-10-18T18:11:28.921Z,71.20
2018-10-18T18:14:00.368Z,71.40
2018-10-18T18:16:30.378Z,72.30
2018-10-18T18:19:01.922Z,72.40
2018-10-18T18:21:33.375Z,72.80
2018-10-18T18:24:04.429Z,72.70
2018-10-18T18:26:45.074Z,73.70
2018-10-18T18:29:05.550Z,74.90
2018-10-18T18:31:36.208Z,74.80
2018-10-18T18:34:05.437Z,75.10
2018-10-18T18:36:35.147Z,75.80
2018-10-18T18:39:07.567Z,76.30
2018-10-18T18:41:38.576Z,76.90
2018-10-18T18:44:09.761Z,76.70
2018-10-18T18:46:40.881Z,76.70
2018-10-18T18:49:12.502Z,77.00
2018-10-18T18:51:43.590Z,77.20
2018-10-18T18:54:13.150Z,77.60
2018-10-18T18:56:44.604Z,77.80
2018-10-18T18:59:14.577Z,78.10
2018-10-18T19:01:44.475Z,77.60
2018-10-18T19:04:13.569Z,77.70
2018-10-18T19:06:44.057Z,78.60
2018-10-18T19:09:13.995Z,79.00
2018-10-18T19:11:42.896Z,79.20
2018-10-18T19:14:13.193Z,79.60
2018-10-18T19:16:43.222Z,79.80
2018-10-18T19:19:13.443Z,80.00
2018-10-18T19:21:43.233Z,79.90
2018-10-18T19:24:13.264Z,79.90
2018-10-18T19:26:43.093Z,80.20
2018-10-18T19:29:14.045Z,80.10
2018-10-18T19:31:44.131Z,80.40
2018-10-18T19:34:14.856Z,80.60
2018-10-18T19:36:44.641Z,80.90
2018-10-18T19:39:15.270Z,81.50
2018-10-18T19:41:46.443Z,81.70
2018-10-18T19:44:17.951Z,81.70
2018-10-18T19:46:48.838Z,82.10
2018-10-18T19:49:19.289Z,82.20
2018-10-18T19:51:51.093Z,82.50
2018-10-18T19:54:23.194Z,82.70
2018-10-18T19:56:53.353Z,82.90
2018-10-18T19:59:24.413Z,82.70
2018-10-18T20:01:54.254Z,82.50
2018-10-18T20:04:24.317Z,82.40
2018-10-18T20:06:53.557Z,82.50
2018-10-18T20:09:23.916Z,82.70
2018-10-18T20:11:55.999Z,83.20
2018-10-18T20:14:25.496Z,83.20
2018-10-18T20:16:57.057Z,83.00
2018-10-18T20:19:29.072Z,83.00
2018-10-18T20:22:01.059Z,82.80
2018-10-18T20:24:33.656Z,81.70
2018-10-18T20:27:04.947Z,81.40
2018-10-18T20:29:36.958Z,81.20
2018-10-18T20:32:09.009Z,80.40
2018-10-18T20:34:39.952Z,81.00
2018-10-18T20:37:11.943Z,81.20
2018-10-18T20:39:43.533Z,80.40
2018-10-18T20:42:14.981Z,80.60
2018-10-18T20:44:45.169Z,81.20
2018-10-18T20:47:15.549Z,80.80
2018-10-18T20:49:46.253Z,81.60
2018-10-18T20:52:16.813Z,81.50
2018-10-18T20:54:47.519Z,82.40
2018-10-18T20:57:19.872Z,82.90
2018-10-18T20:59:50.661Z,83.10
2018-10-18T21:02:21.341Z,83.50
2018-10-18T21:04:52.056Z,83.30
2018-10-18T21:07:24.244Z,83.60
2018-10-18T21:09:55.099Z,83.40
2018-10-18T21:12:26.738Z,83.60
2018-10-18T21:14:58.191Z,83.50
2018-10-18T21:17:28.850Z,84.50
2018-10-18T21:19:59.164Z,84.40
2018-10-18T21:22:31.776Z,84.50
2018-10-18T21:25:02.692Z,85.10
2018-10-18T21:27:34.116Z,84.80
2018-10-18T21:30:06.497Z,85.80
2018-10-18T21:32:37.494Z,85.70
2018-10-18T21:35:08.518Z,85.50
2018-10-18T21:37:40.718Z,85.70
2018-10-18T21:40:12.656Z,85.80
2018-10-18T21:42:43.783Z,85.90
2018-10-18T21:45:15.037Z,86.10
2018-10-18T21:47:46.815Z,86.20
2018-10-18T21:50:17.004Z,86.30
2018-10-18T21:52:47.944Z,86.70
2018-10-18T21:55:17.577Z,87.60
2018-10-18T21:57:47.704Z,86.70
2018-10-18T22:00:17.809Z,86.40
2018-10-18T22:02:48.715Z,86.70
2018-10-18T22:05:19.904Z,87.00
2018-10-18T22:07:52.338Z,87.30
2018-10-18T22:10:23.476Z,87.20
2018-10-18T22:12:55.316Z,87.50
2018-10-18T22:15:26.160Z,87.30
2018-10-18T22:17:56.266Z,87.00
2018-10-18T22:20:27.445Z,87.10
2018-10-18T22:22:57.994Z,87.40
2018-10-18T22:25:29.581Z,87.50
2018-10-18T22:28:01.145Z,87.30
2018-10-18T22:30:32.836Z,87.20
2018-10-18T22:33:03.886Z,88.50
2018-10-18T22:35:35.391Z,87.90
2018-10-18T22:38:05.453Z,88.00
2018-10-18T22:40:37.340Z,88.10
2018-10-18T22:43:07.620Z,88.80
2018-10-18T22:45:38.352Z,89.50
2018-10-18T22:48:09.336Z,89.50
2018-10-18T22:50:41.873Z,89.80
2018-10-18T22:53:13.018Z,89.20
2018-10-18T22:55:43.911Z,89.70
2018-10-18T22:58:15.493Z,90.00
2018-10-18T23:00:51.375Z,89.50
2018-10-18T23:03:22.903Z,89.20
2018-10-18T23:05:53.863Z,89.00
2018-10-18T23:08:26.269Z,89.10
2018-10-18T23:10:56.584Z,89.60
2018-10-18T23:13:27.726Z,88.70
2018-10-18T23:15:59.032Z,89.00
2018-10-18T23:18:30.525Z,89.40
2018-10-18T23:21:01.773Z,89.70
2018-10-18T23:23:32.862Z,89.90
2018-10-18T23:26:03.436Z,89.90
2018-10-18T23:28:34.297Z,90.00
2018-10-18T23:31:06.305Z,89.50
2018-10-18T23:33:36.055Z,89.90
2018-10-18T23:36:08.289Z,89.80
2018-10-18T23:38:40.013Z,89.50
2018-10-18T23:41:12.673Z,89.70
2018-10-18T23:43:43.849Z,89.70
2018-10-18T23:46:16.544Z,89.80
2018-10-18T23:48:46.866Z,89.70
2018-10-18T23:51:16.255Z,89.70
2018-10-18T23:53:48.464Z,89.60
2018-10-18T23:56:18.833Z,89.60
2018-10-18T23:58:49.400Z,89.60
